createdAt,value
2018-07-27T00:12:16.027Z,25.4
2018-07-27T00:29:07.898Z,25.1
2018-07-27T00:45:59.516Z,24.8
2018-07-27T01:02:50.977Z,24.5
2018-07-27T01:19:42.115Z,24.5
2018-07-27T01:36:33.037Z,24.2
2018-07-27T01:53:23.748Z,23.8
2018-07-27T02:10:14.236Z,23.8
2018-07-27T02:27:04.667Z,23.5
2018-07-27T02:43:54.946Z,23.5
2018-07-27T03:00:45.215Z,23.2
2018-07-27T03:17:35.176Z,22.9
2018-07-27T03:34:24.974Z,22.9
2018-07-27T03:51:14.132Z,22.6
2018-07-27T04:08:03.201Z,22.6
2018-07-27T04:24:52.482Z,22.6
2018-07-27T04:41:41.928Z,22.6
2018-07-27T04:58:31.608Z,23.2
2018-07-27T05:15:21.893Z,23.8
2018-07-27T05:28:50.968Z,24.5
2018-07-27T05:45:41.881Z,24.8
2018-07-27T05:59:11.391Z,25.4
2018-07-27T06:09:18.881Z,26.1
2018-07-27T06:22:49.221Z,26.7
2018-07-27T06:39:42.712Z,27.4
2018-07-27T06:53:14.264Z,28.0
2018-07-27T07:06:45.899Z,28.6
2018-07-27T07:23:41.759Z,29.0
2018-07-27T07:38:56.577Z,29.6
2018-07-27T07:54:12.327Z,30.2
2018-07-27T08:11:09.756Z,30.6
2018-07-27T08:28:07.828Z,30.9
2018-07-27T08:45:06.356Z,31.2
2018-07-27T09:02:05.239Z,31.5
2018-07-27T09:10:34.972Z,31.8
2018-07-27T09:27:34.322Z,32.2
2018-07-27T09:44:33.369Z,32.5
2018-07-27T10:01:32.704Z,32.5
2018-07-27T10:18:32.109Z,32.5
2018-07-27T10:35:31.828Z,32.8
2018-07-27T10:49:07.642Z,33.4
2018-07-27T11:06:07.938Z,33.4
2018-07-27T11:23:08.129Z,33.8
2018-07-27T11:40:08.901Z,33.8
2018-07-27T11:57:09.776Z,34.1
2018-07-27T12:00:33.994Z,34.1
2018-07-27T12:17:34.924Z,34.1
2018-07-27T12:34:36.160Z,34.4
2018-07-27T12:51:37.287Z,34.1
2018-07-27T13:01:49.787Z,34.1
2018-07-27T13:18:50.880Z,34.4
2018-07-27T13:35:52.372Z,34.4
2018-07-27T13:52:54.091Z,34.4
2018-07-27T14:09:55.261Z,34.7
2018-07-27T14:26:56.789Z,34.7
2018-07-27T14:43:58.289Z,34.7
2018-07-27T15:00:59.676Z,34.4
2018-07-27T15:18:01.052Z,34.7
2018-07-27T15:35:02.721Z,34.7
2018-07-27T15:52:04.383Z,34.7
2018-07-27T16:09:05.847Z,34.7
2018-07-27T16:17:36.464Z,35.4
2018-07-27T16:34:38.467Z,35.4
2018-07-27T16:51:40.649Z,36.0
2018-07-27T17:08:43.675Z,36.6
2018-07-27T17:25:47.570Z,37.0
2018-07-27T17:42:51.457Z,36.3
2018-07-27T17:51:22.591Z,35.0
2018-07-27T17:59:53.131Z,34.1
2018-07-27T18:06:41.353Z,33.4
2018-07-27T18:13:29.336Z,32.8
2018-07-27T18:28:47.459Z,32.2
2018-07-27T18:45:46.975Z,31.5
2018-07-27T19:02:45.491Z,31.2
2018-07-27T19:12:56.060Z,30.6
2018-07-27T19:29:53.028Z,30.2
2018-07-27T19:43:26.155Z,29.6
2018-07-27T20:00:22.410Z,29.3
2018-07-27T20:17:17.763Z,28.6
2018-07-27T20:34:12.891Z,28.3
2018-07-27T20:51:07.530Z,28.0
2018-07-27T21:08:02.837Z,27.7
2018-07-27T21:24:56.126Z,27.7
2018-07-27T21:41:50.327Z,27.4
2018-07-27T21:58:44.293Z,27.4
2018-07-27T22:15:38.122Z,27.0
2018-07-27T22:32:31.762Z,27.0
2018-07-27T22:49:25.076Z,26.7
2018-07-27T23:06:18.304Z,26.4
2018-07-27T23:23:11.278Z,26.1
2018-07-27T23:40:03.944Z,26.1
2018-07-27T23:56:56.428Z,25.8
